sensor_id;sensor_type;location;lat;lon;timestamp;temperature;humidity
31991;DHT22;18508;49.386;8.370;2022-12-24T00:04:05;12.60;99.90
31991;DHT22;18508;49.386;8.370;2022-12-24T00:09:02;12.70;99.90
31991;DHT22;18508;49.386;8.370;2022-12-24T00:14:03;12.60;99.90
31991;DHT22;18508;49.386;8.370;2022-12-24T00:26:31;12.40;99.90
31991;DHT22;18508;49.386;8.370;2022-12-24T00:31:31;12.30;99.90
31991;DHT22;18508;49.386;8.370;2022-12-24T00:43:58;12.40;99.90
31991;DHT22;18508;49.386;8.370;2022-12-24T00:46:29;12.30;99.90
31991;DHT22;18508;49.386;8.370;2022-12-24T00:48:59;12.40;99.90
31991;DHT22;18508;49.386;8.370;2022-12-24T00:51:28;12.50;99.90
31991;DHT22;18508;49.386;8.370;2022-12-24T01:01:29;12.50;99.90
31991;DHT22;18508;49.386;8.370;2022-12-24T01:16:38;12.30;99.90
31991;DHT22;18508;49.386;8.370;2022-12-24T01:26:36;12.20;99.90
31991;DHT22;18508;49.386;8.370;2022-12-24T01:34:02;12.10;94.60
31991;DHT22;18508;49.386;8.370;2022-12-24T01:41:30;12.10;56.10
31991;DHT22;18508;49.386;8.370;2022-12-24T01:44:23;12.00;99.90
31991;DHT22;18508;49.386;8.370;2022-12-24T01:47:05;12.00;45.80
31991;DHT22;18508;49.386;8.370;2022-12-24T01:49:37;11.70;80.80
31991;DHT22;18508;49.386;8.370;2022-12-24T01:52:09;11.90;99.00
31991;DHT22;18508;49.386;8.370;2022-12-24T01:54:41;11.80;80.00
31991;DHT22;18508;49.386;8.370;2022-12-24T01:57:16;12.10;71.20
31991;DHT22;18508;49.386;8.370;2022-12-24T01:59:47;11.70;90.50
31991;DHT22;18508;49.386;8.370;2022-12-24T02:04:52;11.60;99.90
31991;DHT22;18508;49.386;8.370;2022-12-24T02:09:54;11.60;99.90
31991;DHT22;18508;49.386;8.370;2022-12-24T02:14:58;11.80;99.90
31991;DHT22;18508;49.386;8.370;2022-12-24T02:17:30;11.70;1.00
31991;DHT22;18508;49.386;8.370;2022-12-24T02:20:27;11.90;1.00
31991;DHT22;18508;49.386;8.370;2022-12-24T02:23:08;11.80;98.80
31991;DHT22;18508;49.386;8.370;2022-12-24T02:26:00;11.70;99.90
31991;DHT22;18508;49.386;8.370;2022-12-24T02:28:47;11.80;98.30
31991;DHT22;18508;49.386;8.370;2022-12-24T02:31:22;11.80;99.90
31991;DHT22;18508;49.386;8.370;2022-12-24T02:33:56;11.80;81.80
31991;DHT22;18508;49.386;8.370;2022-12-24T02:36:30;12.00;20.70
31991;DHT22;18508;49.386;8.370;2022-12-24T02:39:04;11.80;99.90
31991;DHT22;18508;49.386;8.370;2022-12-24T02:41:36;11.80;37.90
31991;DHT22;18508;49.386;8.370;2022-12-24T02:44:21;11.90;87.80
31991;DHT22;18508;49.386;8.370;2022-12-24T02:46:54;11.90;94.20
31991;DHT22;18508;49.386;8.370;2022-12-24T02:57:05;11.80;99.90
31991;DHT22;18508;49.386;8.370;2022-12-24T02:59:48;12.10;99.90
31991;DHT22;18508;49.386;8.370;2022-12-24T03:02:25;11.70;99.90
31991;DHT22;18508;49.386;8.370;2022-12-24T03:05:01;11.70;99.90
31991;DHT22;18508;49.386;8.370;2022-12-24T03:07:36;11.60;99.90
31991;DHT22;18508;49.386;8.370;2022-12-24T03:10:15;11.50;99.90
31991;DHT22;18508;49.386;8.370;2022-12-24T03:12:48;11.40;99.90
31991;DHT22;18508;49.386;8.370;2022-12-24T03:15:22;11.40;99.90
31991;DHT22;18508;49.386;8.370;2022-12-24T03:17:54;11.30;99.90
31991;DHT22;18508;49.386;8.370;2022-12-24T03:20:29;11.20;99.90
31991;DHT22;18508;49.386;8.370;2022-12-24T03:23:12;11.50;99.90
31991;DHT22;18508;49.386;8.370;2022-12-24T03:25:42;11.30;99.90
31991;DHT22;18508;49.386;8.370;2022-12-24T03:28:13;11.30;99.90
31991;DHT22;18508;49.386;8.370;2022-12-24T03:30:43;11.30;99.90
31991;DHT22;18508;49.386;8.370;2022-12-24T03:33:13;11.30;99.90
31991;DHT22;18508;49.386;8.370;2022-12-24T03:50:34;11.40;99.90
31991;DHT22;18508;49.386;8.370;2022-12-24T04:07:56;13.40;99.90
31991;DHT22;18508;49.386;8.370;2022-12-24T04:10:26;11.60;99.90
31991;DHT22;18508;49.386;8.370;2022-12-24T04:23:00;11.20;99.90
31991;DHT22;18508;49.386;8.370;2022-12-24T04:40:19;11.30;99.90
31991;DHT22;18508;49.386;8.370;2022-12-24T04:57:40;11.20;99.90
31991;DHT22;18508;49.386;8.370;2022-12-24T05:00:19;12.50;99.90
31991;DHT22;18508;49.386;8.370;2022-12-24T05:12:43;11.30;99.90
31991;DHT22;18508;49.386;8.370;2022-12-24T05:28:12;11.30;99.90
31991;DHT22;18508;49.386;8.370;2022-12-24T05:45:38;11.20;99.90
31991;DHT22;18508;49.386;8.370;2022-12-24T06:02:59;11.10;99.90
31991;DHT22;18508;49.386;8.370;2022-12-24T06:20:22;11.00;99.90
31991;DHT22;18508;49.386;8.370;2022-12-24T06:37:45;10.90;99.90
31991;DHT22;18508;49.386;8.370;2022-12-24T06:45:10;11.10;99.90
31991;DHT22;18508;49.386;8.370;2022-12-24T06:50:07;10.90;99.90
31991;DHT22;18508;49.386;8.370;2022-12-24T06:55:12;11.00;99.90
31991;DHT22;18508;49.386;8.370;2022-12-24T07:00:10;13.10;99.90
31991;DHT22;18508;49.386;8.370;2022-12-24T07:02:39;11.90;99.90
31991;DHT22;18508;49.386;8.370;2022-12-24T07:07:38;12.90;99.90
31991;DHT22;18508;49.386;8.370;2022-12-24T07:10:10;11.00;99.90
31991;DHT22;18508;49.386;8.370;2022-12-24T07:15:09;11.10;99.90
31991;DHT22;18508;49.386;8.370;2022-12-24T07:17:39;11.20;99.90
31991;DHT22;18508;49.386;8.370;2022-12-24T07:20:11;11.20;99.90
31991;DHT22;18508;49.386;8.370;2022-12-24T07:22:41;11.20;99.90
31991;DHT22;18508;49.386;8.370;2022-12-24T07:25:11;11.30;99.90
31991;DHT22;18508;49.386;8.370;2022-12-24T07:30:10;11.50;99.90
31991;DHT22;18508;49.386;8.370;2022-12-24T07:35:08;11.20;99.90
31991;DHT22;18508;49.386;8.370;2022-12-24T07:40:06;11.20;99.90
31991;DHT22;18508;49.386;8.370;2022-12-24T07:42:37;11.20;99.90
31991;DHT22;18508;49.386;8.370;2022-12-24T07:45:06;11.20;99.90
31991;DHT22;18508;49.386;8.370;2022-12-24T07:47:35;11.10;99.90
31991;DHT22;18508;49.386;8.370;2022-12-24T07:50:04;11.00;99.90
31991;DHT22;18508;49.386;8.370;2022-12-24T07:59:59;11.00;99.90
31991;DHT22;18508;49.386;8.370;2022-12-24T08:02:29;10.90;99.90
31991;DHT22;18508;49.386;8.370;2022-12-24T08:17:25;11.10;99.90
31991;DHT22;18508;49.386;8.370;2022-12-24T08:27:26;11.10;99.90
31991;DHT22;18508;49.386;8.370;2022-12-24T08:32:25;11.20;99.90
31991;DHT22;18508;49.386;8.370;2022-12-24T08:49:45;11.30;99.90
31991;DHT22;18508;49.386;8.370;2022-12-24T09:02:14;11.60;99.90
31991;DHT22;18508;49.386;8.370;2022-12-24T09:07:12;11.30;99.90
31991;DHT22;18508;49.386;8.370;2022-12-24T09:19:36;11.40;99.90
31991;DHT22;18508;49.386;8.370;2022-12-24T09:24:34;11.30;99.90
31991;DHT22;18508;49.386;8.370;2022-12-24T09:27:03;11.20;99.90
31991;DHT22;18508;49.386;8.370;2022-12-24T09:42:11;12.00;99.90
31991;DHT22;18508;49.386;8.370;2022-12-24T09:44:44;12.20;99.90
31991;DHT22;18508;49.386;8.370;2022-12-24T09:47:23;12.30;99.90
31991;DHT22;18508;49.386;8.370;2022-12-24T09:49:56;12.40;99.90
31991;DHT22;18508;49.386;8.370;2022-12-24T09:52:32;12.60;99.90
31991;DHT22;18508;49.386;8.370;2022-12-24T09:55:06;12.70;99.90
31991;DHT22;18508;49.386;8.370;2022-12-24T09:57:46;12.90;99.90
31991;DHT22;18508;49.386;8.370;2022-12-24T10:00:19;13.00;99.90
31991;DHT22;18508;49.386;8.370;2022-12-24T10:05:22;13.60;99.90
31991;DHT22;18508;49.386;8.370;2022-12-24T10:07:58;13.20;75.30
31991;DHT22;18508;49.386;8.370;2022-12-24T10:10:34;13.20;80.20
31991;DHT22;18508;49.386;8.370;2022-12-24T10:13:11;13.20;79.90
31991;DHT22;18508;49.386;8.370;2022-12-24T10:15:49;13.00;63.60
31991;DHT22;18508;49.386;8.370;2022-12-24T10:18:26;13.00;29.50
31991;DHT22;18508;49.386;8.370;2022-12-24T10:21:09;13.00;15.90
31991;DHT22;18508;49.386;8.370;2022-12-24T10:23:44;15.60;33.50
31991;DHT22;18508;49.386;8.370;2022-12-24T10:26:17;13.10;66.50
31991;DHT22;18508;49.386;8.370;2022-12-24T10:28:55;13.10;5.90
31991;DHT22;18508;49.386;8.370;2022-12-24T10:31:29;13.10;16.10
31991;DHT22;18508;49.386;8.370;2022-12-24T10:34:01;13.10;5.30
31991;DHT22;18508;49.386;8.370;2022-12-24T10:41:35;13.40;38.50
31991;DHT22;18508;49.386;8.370;2022-12-24T10:44:05;13.40;11.10
31991;DHT22;18508;49.386;8.370;2022-12-24T10:46:36;13.80;18.30
31991;DHT22;18508;49.386;8.370;2022-12-24T10:49:11;13.50;22.50
31991;DHT22;18508;49.386;8.370;2022-12-24T10:51:45;13.50;42.50
31991;DHT22;18508;49.386;8.370;2022-12-24T10:54:17;13.50;62.10
31991;DHT22;18508;49.386;8.370;2022-12-24T10:56:57;13.40;79.50
31991;DHT22;18508;49.386;8.370;2022-12-24T10:59:33;13.40;51.10
31991;DHT22;18508;49.386;8.370;2022-12-24T11:02:25;13.40;99.90
31991;DHT22;18508;49.386;8.370;2022-12-24T11:09:57;13.20;99.90
31991;DHT22;18508;49.386;8.370;2022-12-24T11:12:28;13.00;99.90
31991;DHT22;18508;49.386;8.370;2022-12-24T11:15:06;13.30;99.90
31991;DHT22;18508;49.386;8.370;2022-12-24T11:17:44;13.10;99.90
31991;DHT22;18508;49.386;8.370;2022-12-24T11:20:22;13.20;99.90
31991;DHT22;18508;49.386;8.370;2022-12-24T11:22:53;13.20;99.90
31991;DHT22;18508;49.386;8.370;2022-12-24T11:25:25;13.20;99.90
31991;DHT22;18508;49.386;8.370;2022-12-24T11:30:30;13.40;99.90
31991;DHT22;18508;49.386;8.370;2022-12-24T11:33:15;13.40;99.90
31991;DHT22;18508;49.386;8.370;2022-12-24T11:35:46;12.10;99.90
31991;DHT22;18508;49.386;8.370;2022-12-24T11:38:21;13.50;99.90
31991;DHT22;18508;49.386;8.370;2022-12-24T11:41:04;13.40;99.90
31991;DHT22;18508;49.386;8.370;2022-12-24T11:43:40;13.50;99.90
31991;DHT22;18508;49.386;8.370;2022-12-24T11:46:21;13.40;99.90
31991;DHT22;18508;49.386;8.370;2022-12-24T11:49:23;13.90;99.90
31991;DHT22;18508;49.386;8.370;2022-12-24T11:52:27;13.30;99.90
31991;DHT22;18508;49.386;8.370;2022-12-24T11:55:13;13.30;99.90
31991;DHT22;18508;49.386;8.370;2022-12-24T11:57:51;13.40;99.90
31991;DHT22;18508;49.386;8.370;2022-12-24T12:03:00;13.60;99.90
31991;DHT22;18508;49.386;8.370;2022-12-24T12:05:32;13.60;99.90
31991;DHT22;18508;49.386;8.370;2022-12-24T12:08:08;13.60;99.90
31991;DHT22;18508;49.386;8.370;2022-12-24T12:10:40;13.50;99.90
31991;DHT22;18508;49.386;8.370;2022-12-24T12:13:12;13.60;99.90
31991;DHT22;18508;49.386;8.370;2022-12-24T12:15:45;13.60;99.90
31991;DHT22;18508;49.386;8.370;2022-12-24T12:18:18;13.60;99.90
31991;DHT22;18508;49.386;8.370;2022-12-24T12:20:51;13.40;99.90
31991;DHT22;18508;49.386;8.370;2022-12-24T12:23:24;13.50;99.90
31991;DHT22;18508;49.386;8.370;2022-12-24T12:26:00;13.50;99.90
31991;DHT22;18508;49.386;8.370;2022-12-24T12:28:33;13.40;99.90
31991;DHT22;18508;49.386;8.370;2022-12-24T12:31:09;13.40;99.90
31991;DHT22;18508;49.386;8.370;2022-12-24T12:33:46;13.40;99.90
31991;DHT22;18508;49.386;8.370;2022-12-24T12:36:19;13.30;99.90
31991;DHT22;18508;49.386;8.370;2022-12-24T12:38:50;12.70;99.90
31991;DHT22;18508;49.386;8.370;2022-12-24T12:41:34;13.60;99.90
31991;DHT22;18508;49.386;8.370;2022-12-24T12:44:29;13.80;99.90
31991;DHT22;18508;49.386;8.370;2022-12-24T12:47:12;13.80;99.90
31991;DHT22;18508;49.386;8.370;2022-12-24T12:49:50;13.70;99.90
31991;DHT22;18508;49.386;8.370;2022-12-24T12:52:27;13.80;99.90
31991;DHT22;18508;49.386;8.370;2022-12-24T12:55:06;13.70;99.90
31991;DHT22;18508;49.386;8.370;2022-12-24T12:57:51;13.70;99.90
31991;DHT22;18508;49.386;8.370;2022-12-24T13:02:59;13.50;99.90
31991;DHT22;18508;49.386;8.370;2022-12-24T13:05:47;13.50;99.90
31991;DHT22;18508;49.386;8.370;2022-12-24T13:08:42;13.30;99.90
31991;DHT22;18508;49.386;8.370;2022-12-24T13:11:31;13.30;99.90
31991;DHT22;18508;49.386;8.370;2022-12-24T13:14:15;13.40;99.90
31991;DHT22;18508;49.386;8.370;2022-12-24T13:17:11;13.30;99.90
31991;DHT22;18508;49.386;8.370;2022-12-24T13:20:01;13.10;99.90
31991;DHT22;18508;49.386;8.370;2022-12-24T13:22:34;13.10;99.90
31991;DHT22;18508;49.386;8.370;2022-12-24T13:25:03;13.00;99.90
31991;DHT22;18508;49.386;8.370;2022-12-24T13:27:33;12.90;99.90
31991;DHT22;18508;49.386;8.370;2022-12-24T13:30:05;12.80;99.90
31991;DHT22;18508;49.386;8.370;2022-12-24T13:32:50;12.80;99.90
31991;DHT22;18508;49.386;8.370;2022-12-24T13:35:35;12.70;99.90
31991;DHT22;18508;49.386;8.370;2022-12-24T13:38:38;12.60;99.90
31991;DHT22;18508;49.386;8.370;2022-12-24T13:44:25;12.60;99.90
31991;DHT22;18508;49.386;8.370;2022-12-24T13:47:17;12.50;99.90
31991;DHT22;18508;49.386;8.370;2022-12-24T13:49:57;12.50;99.90
31991;DHT22;18508;49.386;8.370;2022-12-24T13:52:28;12.50;99.90
31991;DHT22;18508;49.386;8.370;2022-12-24T13:55:14;12.50;99.90
31991;DHT22;18508;49.386;8.370;2022-12-24T13:57:51;12.40;99.90
31991;DHT22;18508;49.386;8.370;2022-12-24T14:00:36;12.40;99.90
31991;DHT22;18508;49.386;8.370;2022-12-24T14:03:23;12.30;99.90
31991;DHT22;18508;49.386;8.370;2022-12-24T14:05:57;12.20;99.90
31991;DHT22;18508;49.386;8.370;2022-12-24T14:08:37;12.40;99.90
31991;DHT22;18508;49.386;8.370;2022-12-24T14:11:12;12.40;99.90
31991;DHT22;18508;49.386;8.370;2022-12-24T14:14:25;12.50;99.90
31991;DHT22;18508;49.386;8.370;2022-12-24T14:16:57;12.60;99.90
31991;DHT22;18508;49.386;8.370;2022-12-24T14:19:31;12.70;99.90
31991;DHT22;18508;49.386;8.370;2022-12-24T14:22:18;12.60;99.90
31991;DHT22;18508;49.386;8.370;2022-12-24T14:24:52;12.50;99.90
31991;DHT22;18508;49.386;8.370;2022-12-24T14:27:30;12.50;99.90
31991;DHT22;18508;49.386;8.370;2022-12-24T14:30:05;12.30;99.90
31991;DHT22;18508;49.386;8.370;2022-12-24T14:32:36;12.30;99.90
31991;DHT22;18508;49.386;8.370;2022-12-24T14:35:14;12.30;99.90
31991;DHT22;18508;49.386;8.370;2022-12-24T14:37:45;12.30;99.90
31991;DHT22;18508;49.386;8.370;2022-12-24T14:40:16;12.30;99.90
31991;DHT22;18508;49.386;8.370;2022-12-24T14:42:53;12.20;99.90
31991;DHT22;18508;49.386;8.370;2022-12-24T14:45:28;12.10;99.90
31991;DHT22;18508;49.386;8.370;2022-12-24T14:48:07;12.10;99.90
31991;DHT22;18508;49.386;8.370;2022-12-24T14:50:50;12.00;99.90
31991;DHT22;18508;49.386;8.370;2022-12-24T14:53:36;12.00;99.90
31991;DHT22;18508;49.386;8.370;2022-12-24T14:56:17;11.90;99.90
31991;DHT22;18508;49.386;8.370;2022-12-24T14:58:47;11.90;99.90
31991;DHT22;18508;49.386;8.370;2022-12-24T15:01:20;11.90;99.90
31991;DHT22;18508;49.386;8.370;2022-12-24T15:04:04;11.80;99.90
31991;DHT22;18508;49.386;8.370;2022-12-24T15:06:37;11.70;99.90
31991;DHT22;18508;49.386;8.370;2022-12-24T15:09:10;11.70;99.90
31991;DHT22;18508;49.386;8.370;2022-12-24T15:11:43;11.60;99.90
31991;DHT22;18508;49.386;8.370;2022-12-24T15:14:14;11.70;99.90
31991;DHT22;18508;49.386;8.370;2022-12-24T15:16:50;11.50;99.90
31991;DHT22;18508;49.386;8.370;2022-12-24T15:19:22;11.60;99.90
31991;DHT22;18508;49.386;8.370;2022-12-24T15:21:54;11.60;99.90
31991;DHT22;18508;49.386;8.370;2022-12-24T15:24:24;11.50;99.90
31991;DHT22;18508;49.386;8.370;2022-12-24T15:29:26;11.40;99.90
31991;DHT22;18508;49.386;8.370;2022-12-24T15:31:56;11.40;99.90
31991;DHT22;18508;49.386;8.370;2022-12-24T15:34:28;11.30;99.90
31991;DHT22;18508;49.386;8.370;2022-12-24T15:37:05;11.30;99.90
31991;DHT22;18508;49.386;8.370;2022-12-24T15:39:39;11.20;99.90
31991;DHT22;18508;49.386;8.370;2022-12-24T15:42:09;10.90;99.90
31991;DHT22;18508;49.386;8.370;2022-12-24T15:44:47;11.20;99.90
31991;DHT22;18508;49.386;8.370;2022-12-24T15:47:18;11.10;99.90
31991;DHT22;18508;49.386;8.370;2022-12-24T15:49:49;11.90;99.90
31991;DHT22;18508;49.386;8.370;2022-12-24T15:52:23;11.10;99.90
31991;DHT22;18508;49.386;8.370;2022-12-24T15:54:52;10.70;99.90
31991;DHT22;18508;49.386;8.370;2022-12-24T15:57:29;11.10;99.90
31991;DHT22;18508;49.386;8.370;2022-12-24T16:00:00;11.00;99.90
31991;DHT22;18508;49.386;8.370;2022-12-24T16:02:33;8.90;99.90
31991;DHT22;18508;49.386;8.370;2022-12-24T16:05:27;11.00;99.90
31991;DHT22;18508;49.386;8.370;2022-12-24T16:11:15;11.10;99.90
31991;DHT22;18508;49.386;8.370;2022-12-24T16:14:11;11.00;99.90
31991;DHT22;18508;49.386;8.370;2022-12-24T16:16:46;11.00;99.90
31991;DHT22;18508;49.386;8.370;2022-12-24T16:19:20;10.90;99.90
31991;DHT22;18508;49.386;8.370;2022-12-24T16:21:53;11.00;99.90
31991;DHT22;18508;49.386;8.370;2022-12-24T16:24:23;10.90;99.90
31991;DHT22;18508;49.386;8.370;2022-12-24T16:29:22;10.90;99.90
31991;DHT22;18508;49.386;8.370;2022-12-24T16:31:56;10.80;99.90
31991;DHT22;18508;49.386;8.370;2022-12-24T16:34:27;10.90;99.90
31991;DHT22;18508;49.386;8.370;2022-12-24T16:36:57;10.80;99.90
31991;DHT22;18508;49.386;8.370;2022-12-24T16:39:29;9.10;99.90
31991;DHT22;18508;49.386;8.370;2022-12-24T16:41:59;10.80;99.90
31991;DHT22;18508;49.386;8.370;2022-12-24T16:44:47;10.80;99.90
31991;DHT22;18508;49.386;8.370;2022-12-24T16:47:21;11.90;99.90
31991;DHT22;18508;49.386;8.370;2022-12-24T16:52:21;10.80;99.90
31991;DHT22;18508;49.386;8.370;2022-12-24T16:54:53;10.50;99.90
31991;DHT22;18508;49.386;8.370;2022-12-24T17:02:22;10.80;99.90
31991;DHT22;18508;49.386;8.370;2022-12-24T17:14:47;10.80;99.90
31991;DHT22;18508;49.386;8.370;2022-12-24T17:17:21;10.80;99.90
31991;DHT22;18508;49.386;8.370;2022-12-24T17:19:50;10.80;99.90
31991;DHT22;18508;49.386;8.370;2022-12-24T17:22:22;10.80;99.90
31991;DHT22;18508;49.386;8.370;2022-12-24T17:24:50;10.70;99.90
31991;DHT22;18508;49.386;8.370;2022-12-24T17:27:19;10.80;99.90
31991;DHT22;18508;49.386;8.370;2022-12-24T17:29:47;10.80;99.90
31991;DHT22;18508;49.386;8.370;2022-12-24T17:32:15;10.80;99.90
31991;DHT22;18508;49.386;8.370;2022-12-24T17:34:47;10.70;99.90
31991;DHT22;18508;49.386;8.370;2022-12-24T17:37:16;10.80;99.90
31991;DHT22;18508;49.386;8.370;2022-12-24T17:39:44;10.80;99.90
31991;DHT22;18508;49.386;8.370;2022-12-24T17:42:12;10.70;99.90
31991;DHT22;18508;49.386;8.370;2022-12-24T17:44:40;10.70;99.90
31991;DHT22;18508;49.386;8.370;2022-12-24T17:47:10;10.70;99.90
31991;DHT22;18508;49.386;8.370;2022-12-24T17:49:38;10.70;99.90
31991;DHT22;18508;49.386;8.370;2022-12-24T17:52:09;10.60;99.90
31991;DHT22;18508;49.386;8.370;2022-12-24T17:54:37;10.60;99.90
31991;DHT22;18508;49.386;8.370;2022-12-24T17:57:06;10.60;99.90
31991;DHT22;18508;49.386;8.370;2022-12-24T17:59:34;10.70;99.90
31991;DHT22;18508;49.386;8.370;2022-12-24T18:02:03;10.70;99.90
31991;DHT22;18508;49.386;8.370;2022-12-24T18:04:31;10.60;99.90
31991;DHT22;18508;49.386;8.370;2022-12-24T18:07:00;10.60;99.90
31991;DHT22;18508;49.386;8.370;2022-12-24T18:09:30;10.70;99.90
31991;DHT22;18508;49.386;8.370;2022-12-24T18:11:58;10.60;99.90
31991;DHT22;18508;49.386;8.370;2022-12-24T18:14:27;10.60;99.90
31991;DHT22;18508;49.386;8.370;2022-12-24T18:16:55;10.60;99.90
31991;DHT22;18508;49.386;8.370;2022-12-24T18:19:23;10.60;99.90
31991;DHT22;18508;49.386;8.370;2022-12-24T18:21:53;10.60;99.90
31991;DHT22;18508;49.386;8.370;2022-12-24T18:24:22;10.60;99.90
31991;DHT22;18508;49.386;8.370;2022-12-24T18:26:52;10.60;99.90
31991;DHT22;18508;49.386;8.370;2022-12-24T18:29:21;10.50;99.90
31991;DHT22;18508;49.386;8.370;2022-12-24T18:31:50;10.60;99.90
31991;DHT22;18508;49.386;8.370;2022-12-24T18:34:20;10.60;99.90
31991;DHT22;18508;49.386;8.370;2022-12-24T18:36:48;10.60;99.90
31991;DHT22;18508;49.386;8.370;2022-12-24T18:39:21;10.60;99.90
31991;DHT22;18508;49.386;8.370;2022-12-24T18:41:51;10.60;99.90
31991;DHT22;18508;49.386;8.370;2022-12-24T18:44:19;10.60;99.90
31991;DHT22;18508;49.386;8.370;2022-12-24T18:46:51;10.70;99.90
31991;DHT22;18508;49.386;8.370;2022-12-24T18:49:20;10.70;99.90
31991;DHT22;18508;49.386;8.370;2022-12-24T18:51:48;10.60;99.90
31991;DHT22;18508;49.386;8.370;2022-12-24T18:54:17;10.60;99.90
31991;DHT22;18508;49.386;8.370;2022-12-24T18:56:45;10.60;99.90
31991;DHT22;18508;49.386;8.370;2022-12-24T18:59:18;10.50;99.90
31991;DHT22;18508;49.386;8.370;2022-12-24T19:01:47;10.50;99.90
31991;DHT22;18508;49.386;8.370;2022-12-24T19:04:15;10.50;99.90
31991;DHT22;18508;49.386;8.370;2022-12-24T19:06:44;10.50;99.90
31991;DHT22;18508;49.386;8.370;2022-12-24T19:09:20;10.50;99.90
31991;DHT22;18508;49.386;8.370;2022-12-24T19:11:49;10.50;99.90
31991;DHT22;18508;49.386;8.370;2022-12-24T19:14:19;10.50;99.90
31991;DHT22;18508;49.386;8.370;2022-12-24T19:16:48;10.50;99.90
31991;DHT22;18508;49.386;8.370;2022-12-24T19:19:17;10.50;99.90
31991;DHT22;18508;49.386;8.370;2022-12-24T19:21:50;10.50;99.90
31991;DHT22;18508;49.386;8.370;2022-12-24T19:24:18;10.50;99.90
31991;DHT22;18508;49.386;8.370;2022-12-24T19:26:46;10.50;99.90
31991;DHT22;18508;49.386;8.370;2022-12-24T19:29:15;10.40;99.90
31991;DHT22;18508;49.386;8.370;2022-12-24T19:31:45;10.40;99.90
31991;DHT22;18508;49.386;8.370;2022-12-24T19:34:14;10.40;99.90
31991;DHT22;18508;49.386;8.370;2022-12-24T19:36:42;10.40;99.90
31991;DHT22;18508;49.386;8.370;2022-12-24T19:39:13;10.40;99.90
31991;DHT22;18508;49.386;8.370;2022-12-24T19:41:42;10.40;99.90
31991;DHT22;18508;49.386;8.370;2022-12-24T19:44:11;10.30;99.90
31991;DHT22;18508;49.386;8.370;2022-12-24T19:46:39;10.40;99.90
31991;DHT22;18508;49.386;8.370;2022-12-24T19:49:10;10.30;99.90
31991;DHT22;18508;49.386;8.370;2022-12-24T19:51:38;10.30;99.90
31991;DHT22;18508;49.386;8.370;2022-12-24T19:54:08;10.20;99.90
31991;DHT22;18508;49.386;8.370;2022-12-24T19:56:44;10.30;99.90
31991;DHT22;18508;49.386;8.370;2022-12-24T19:59:14;10.30;99.90
31991;DHT22;18508;49.386;8.370;2022-12-24T20:01:44;10.30;99.90
31991;DHT22;18508;49.386;8.370;2022-12-24T20:04:14;10.20;99.90
31991;DHT22;18508;49.386;8.370;2022-12-24T20:06:44;10.20;99.90
31991;DHT22;18508;49.386;8.370;2022-12-24T20:09:14;10.10;99.90
31991;DHT22;18508;49.386;8.370;2022-12-24T20:11:42;10.20;99.90
31991;DHT22;18508;49.386;8.370;2022-12-24T20:14:11;10.20;99.90
31991;DHT22;18508;49.386;8.370;2022-12-24T20:16:41;10.20;99.90
31991;DHT22;18508;49.386;8.370;2022-12-24T20:19:12;10.20;99.90
31991;DHT22;18508;49.386;8.370;2022-12-24T20:21:44;10.20;99.90
31991;DHT22;18508;49.386;8.370;2022-12-24T20:24:12;10.20;99.90
31991;DHT22;18508;49.386;8.370;2022-12-24T20:26:40;10.20;99.90
31991;DHT22;18508;49.386;8.370;2022-12-24T20:29:09;10.20;99.90
31991;DHT22;18508;49.386;8.370;2022-12-24T20:31:38;10.10;99.90
31991;DHT22;18508;49.386;8.370;2022-12-24T20:34:07;10.10;99.90
31991;DHT22;18508;49.386;8.370;2022-12-24T20:36:36;10.20;99.90
31991;DHT22;18508;49.386;8.370;2022-12-24T20:39:06;10.20;99.90
31991;DHT22;18508;49.386;8.370;2022-12-24T20:41:35;10.30;99.90
31991;DHT22;18508;49.386;8.370;2022-12-24T20:44:05;10.30;99.90
31991;DHT22;18508;49.386;8.370;2022-12-24T20:46:34;10.30;99.90
31991;DHT22;18508;49.386;8.370;2022-12-24T20:49:02;10.30;99.90
31991;DHT22;18508;49.386;8.370;2022-12-24T20:51:31;10.30;99.90
31991;DHT22;18508;49.386;8.370;2022-12-24T20:54:03;10.20;99.90
31991;DHT22;18508;49.386;8.370;2022-12-24T20:56:33;10.30;99.90
31991;DHT22;18508;49.386;8.370;2022-12-24T20:59:01;10.20;99.90
31991;DHT22;18508;49.386;8.370;2022-12-24T21:01:30;10.20;99.90
31991;DHT22;18508;49.386;8.370;2022-12-24T21:04:01;10.20;99.90
31991;DHT22;18508;49.386;8.370;2022-12-24T21:06:33;10.20;99.90
31991;DHT22;18508;49.386;8.370;2022-12-24T21:09:03;10.20;99.90
31991;DHT22;18508;49.386;8.370;2022-12-24T21:11:34;10.20;99.90
31991;DHT22;18508;49.386;8.370;2022-12-24T21:14:21;10.20;99.90
31991;DHT22;18508;49.386;8.370;2022-12-24T21:16:52;10.10;99.90
31991;DHT22;18508;49.386;8.370;2022-12-24T21:19:22;10.10;99.90
31991;DHT22;18508;49.386;8.370;2022-12-24T21:21:51;10.10;99.90
31991;DHT22;18508;49.386;8.370;2022-12-24T21:24:19;10.10;99.90
31991;DHT22;18508;49.386;8.370;2022-12-24T21:26:49;10.10;99.90
31991;DHT22;18508;49.386;8.370;2022-12-24T21:29:17;10.10;99.90
31991;DHT22;18508;49.386;8.370;2022-12-24T21:31:45;10.10;99.90
31991;DHT22;18508;49.386;8.370;2022-12-24T21:34:16;10.10;99.90
31991;DHT22;18508;49.386;8.370;2022-12-24T21:36:44;10.10;99.90
31991;DHT22;18508;49.386;8.370;2022-12-24T21:39:13;10.10;99.90
31991;DHT22;18508;49.386;8.370;2022-12-24T21:41:41;10.10;99.90
31991;DHT22;18508;49.386;8.370;2022-12-24T21:44:11;10.10;99.90
31991;DHT22;18508;49.386;8.370;2022-12-24T21:46:39;10.20;99.90
31991;DHT22;18508;49.386;8.370;2022-12-24T21:49:09;10.10;99.90
31991;DHT22;18508;49.386;8.370;2022-12-24T21:51:55;10.00;99.90
31991;DHT22;18508;49.386;8.370;2022-12-24T21:54:23;10.00;99.90
31991;DHT22;18508;49.386;8.370;2022-12-24T21:56:58;10.00;99.90
31991;DHT22;18508;49.386;8.370;2022-12-24T21:59:48;10.00;99.90
31991;DHT22;18508;49.386;8.370;2022-12-24T22:02:17;10.00;99.90
31991;DHT22;18508;49.386;8.370;2022-12-24T22:04:48;10.00;99.90
31991;DHT22;18508;49.386;8.370;2022-12-24T22:07:20;10.00;99.90
31991;DHT22;18508;49.386;8.370;2022-12-24T22:10:08;10.00;99.90
31991;DHT22;18508;49.386;8.370;2022-12-24T22:12:56;9.90;99.90
31991;DHT22;18508;49.386;8.370;2022-12-24T22:15:29;9.90;99.90
31991;DHT22;18508;49.386;8.370;2022-12-24T22:17:57;9.90;99.90
31991;DHT22;18508;49.386;8.370;2022-12-24T22:20:25;9.90;99.90
31991;DHT22;18508;49.386;8.370;2022-12-24T22:22:55;9.90;99.90
31991;DHT22;18508;49.386;8.370;2022-12-24T22:25:23;9.90;99.90
31991;DHT22;18508;49.386;8.370;2022-12-24T22:27:54;9.80;99.90
31991;DHT22;18508;49.386;8.370;2022-12-24T22:30:23;9.90;99.90
31991;DHT22;18508;49.386;8.370;2022-12-24T22:32:53;9.90;99.90
31991;DHT22;18508;49.386;8.370;2022-12-24T22:35:21;9.90;99.90
31991;DHT22;18508;49.386;8.370;2022-12-24T22:37:51;9.90;99.90
31991;DHT22;18508;49.386;8.370;2022-12-24T22:40:25;9.90;99.90
31991;DHT22;18508;49.386;8.370;2022-12-24T22:42:54;9.90;99.90